Japan Airlines Virtual Airport Information Service

Fukuoka Airport

ICAO: RJFF Country: Japan
Latitude: 33.5859 Longitude: 130.451
Latest Arrival : JTA58 (ROAH-RJFF) Latest Departure : JTA57 (RJFF-ROAH)


WX CaptureLIVE
Data provided by noaa.gov | Fetched at 13:44:49

METAR : RJFF 231300Z 11005KT CAVOK 19/10 Q1017 NOSIG RMK A3004

TAF : RJFF 231106Z 2312/2418 13004KT 9999 FEW030 BECMG 2403/2406 03005KT


Runway Data for RJFF
Data provided by openaviationdata.com

Runway ID Mag Var Hdg Length Elevation Surface ILS Freq ILS Id ILS Slope
16 -7 157° 9213 ft -23 ft Asphalt 111.7 IFO 3
34 -7 337° 9213 ft -23 ft Asphalt 108.9 IFF 3

Fukuoka Airport, Japan
Use only for reference purposes



Not for navigational purposes.